createdAt,value
2022-09-01T00:00:01.329Z,13.00
2022-09-01T00:00:08.086Z,7.20
2022-09-01T00:00:18.113Z,7.30
2022-09-01T00:00:28.094Z,9.50
2022-09-01T00:00:38.704Z,9.70
2022-09-01T00:00:48.090Z,6.80
2022-09-01T00:00:58.090Z,7.20
2022-09-01T00:01:08.100Z,7.50
2022-09-01T00:01:18.124Z,7.40
2022-09-01T00:01:28.087Z,6.60
2022-09-01T00:01:38.196Z,7.10
2022-09-01T00:01:48.163Z,7.10
2022-09-01T00:01:58.178Z,12.60
2022-09-01T00:02:08.155Z,8.80
2022-09-01T00:02:18.205Z,12.10
2022-09-01T00:02:28.111Z,7.60
2022-09-01T00:02:38.145Z,7.80
2022-09-01T00:02:48.143Z,6.90
2022-09-01T00:02:58.208Z,7.20
2022-09-01T00:03:08.100Z,6.80
2022-09-01T00:03:18.763Z,6.70
2022-09-01T00:03:28.075Z,6.40
2022-09-01T00:03:38.107Z,6.90
2022-09-01T00:03:48.102Z,7.20
2022-09-01T00:03:58.177Z,8.20
2022-09-01T00:04:08.292Z,9.30
2022-09-01T00:04:18.165Z,11.50
2022-09-01T00:04:28.156Z,16.20
2022-09-01T00:04:38.157Z,12.10
2022-09-01T00:04:48.125Z,13.90
2022-09-01T00:04:58.083Z,7.80
2022-09-01T00:05:08.090Z,10.80
2022-09-01T00:05:18.132Z,9.40
2022-09-01T00:05:28.081Z,12.00
2022-09-01T00:05:38.091Z,7.60
2022-09-01T00:05:48.059Z,7.90
2022-09-01T00:05:58.107Z,7.70
2022-09-01T00:06:08.747Z,14.90
2022-09-01T00:06:18.068Z,13.60
2022-09-01T00:06:28.126Z,15.60
2022-09-01T00:06:38.061Z,8.60
2022-09-01T00:06:48.075Z,6.60
2022-09-01T00:06:58.097Z,7.20
2022-09-01T00:07:08.058Z,5.50
2022-09-01T00:07:18.684Z,11.80
2022-09-01T00:07:28.238Z,9.00
2022-09-01T00:07:38.101Z,8.90
2022-09-01T00:07:48.077Z,4.80
2022-09-01T00:07:58.118Z,4.10
2022-09-01T00:08:08.103Z,5.00
2022-09-01T00:08:18.797Z,4.30
2022-09-01T00:08:28.721Z,4.40
2022-09-01T00:08:38.054Z,3.20
2022-09-01T00:08:48.083Z,3.30
2022-09-01T00:08:58.060Z,3.30
2022-09-01T00:09:08.048Z,3.90
2022-09-01T00:09:18.094Z,6.60
2022-09-01T00:09:28.066Z,6.60
2022-09-01T00:09:38.052Z,7.40
2022-09-01T00:09:48.053Z,7.80
2022-09-01T00:09:58.046Z,11.00
2022-09-01T00:10:08.054Z,7.50
2022-09-01T00:10:18.090Z,9.40
2022-09-01T00:10:28.052Z,6.10
2022-09-01T00:10:38.056Z,6.10
2022-09-01T00:10:48.050Z,4.70
2022-09-01T00:10:58.038Z,7.10
2022-09-01T00:11:08.059Z,7.20
2022-09-01T00:11:18.066Z,4.20
2022-09-01T00:11:28.037Z,3.90
2022-09-01T00:11:38.059Z,3.70
2022-09-01T00:11:50.728Z,3.60
2022-09-01T00:11:58.033Z,6.60
2022-09-01T00:12:08.065Z,13.70
2022-09-01T00:12:18.038Z,13.50
2022-09-01T00:12:28.135Z,8.30
2022-09-01T00:12:38.105Z,3.90
2022-09-01T00:12:48.042Z,4.20
2022-09-01T00:12:58.044Z,4.00
2022-09-01T00:13:08.043Z,3.10
2022-09-01T00:13:18.040Z,2.90
2022-09-01T00:13:28.691Z,2.70
2022-09-01T00:13:38.055Z,3.20
2022-09-01T00:13:48.757Z,3.50
2022-09-01T00:13:58.183Z,3.80
2022-09-01T00:14:09.910Z,3.80
2022-09-01T00:14:30.635Z,5.20
2022-09-01T00:14:30.822Z,7.90
2022-09-01T00:14:40.993Z,16.00
2022-09-01T00:14:48.024Z,12.40
2022-09-01T00:14:58.057Z,9.90
2022-09-01T00:15:08.035Z,3.80
2022-09-01T00:15:18.040Z,4.00
2022-09-01T00:15:28.124Z,4.20
2022-09-01T00:15:38.082Z,4.10
2022-09-01T00:15:48.090Z,4.00
2022-09-01T00:15:58.136Z,3.70
2022-09-01T00:16:08.062Z,4.80
2022-09-01T00:16:18.090Z,5.10
2022-09-01T00:16:28.063Z,5.10
2022-09-01T00:16:38.209Z,4.00
2022-09-01T00:16:48.045Z,4.20
2022-09-01T00:16:58.051Z,4.50
2022-09-01T00:17:08.018Z,4.70
2022-09-01T00:17:18.037Z,4.50
2022-09-01T00:17:28.689Z,8.10
2022-09-01T00:17:38.015Z,5.40
2022-09-01T00:17:48.100Z,5.40
2022-09-01T00:17:58.053Z,5.10
2022-09-01T00:18:08.020Z,5.30
2022-09-01T00:18:18.287Z,5.20
2022-09-01T00:18:28.048Z,4.80
2022-09-01T00:18:38.727Z,4.60
2022-09-01T00:18:48.022Z,9.00
2022-09-01T00:18:58.015Z,8.90
2022-09-01T00:19:08.012Z,8.70
2022-09-01T00:19:18.005Z,5.00
2022-09-01T00:19:28.006Z,4.80
2022-09-01T00:19:38.021Z,4.90
2022-09-01T00:19:48.020Z,4.70
2022-09-01T00:19:58.003Z,6.20
2022-09-01T00:20:08.004Z,6.30
2022-09-01T00:20:20.540Z,6.20
2022-09-01T00:20:28.004Z,5.10
2022-09-01T00:20:38.027Z,4.90
2022-09-01T00:20:48.336Z,4.80
2022-09-01T00:20:58.011Z,5.10
2022-09-01T00:21:08.075Z,5.70
2022-09-01T00:21:18.048Z,5.70
2022-09-01T00:21:28.000Z,5.20
2022-09-01T00:21:38.031Z,4.60
2022-09-01T00:21:48.033Z,5.50
2022-09-01T00:21:57.997Z,5.40
2022-09-01T00:22:08.015Z,5.40
2022-09-01T00:22:18.007Z,5.00
2022-09-01T00:22:28.009Z,5.20
2022-09-01T00:22:38.007Z,5.30
2022-09-01T00:22:48.754Z,4.70
2022-09-01T00:22:58.138Z,4.60
2022-09-01T00:23:08.018Z,4.60
2022-09-01T00:23:17.986Z,4.50
2022-09-01T00:23:28.010Z,4.20
2022-09-01T00:23:37.985Z,4.40
2022-09-01T00:23:47.989Z,4.50
2022-09-01T00:23:58.017Z,4.50
2022-09-01T00:24:08.001Z,3.90
2022-09-01T00:24:17.986Z,3.50
2022-09-01T00:24:27.982Z,4.10
2022-09-01T00:24:37.987Z,4.20
2022-09-01T00:24:48.005Z,4.80
2022-09-01T00:24:58.092Z,4.90
2022-09-01T00:25:07.991Z,5.20
2022-09-01T00:25:17.987Z,6.50
2022-09-01T00:25:28.028Z,8.10
2022-09-01T00:25:37.993Z,11.80
2022-09-01T00:25:47.991Z,13.20
2022-09-01T00:25:58.023Z,9.00
2022-09-01T00:26:07.977Z,5.10
2022-09-01T00:26:17.998Z,4.40
2022-09-01T00:26:27.984Z,4.30
2022-09-01T00:26:37.976Z,4.50
2022-09-01T00:26:48.017Z,4.50
2022-09-01T00:26:58.681Z,4.30
2022-09-01T00:27:07.979Z,4.30
2022-09-01T00:27:17.990Z,4.30
2022-09-01T00:27:30.926Z,4.90
2022-09-01T00:27:37.978Z,4.90
2022-09-01T00:27:47.993Z,4.80
2022-09-01T00:27:57.982Z,4.60
2022-09-01T00:28:08.261Z,4.90
2022-09-01T00:28:18.081Z,4.90
2022-09-01T00:28:30.259Z,6.70
2022-09-01T00:28:37.983Z,7.40
2022-09-01T00:28:47.967Z,7.00
2022-09-01T00:28:58.684Z,4.50
2022-09-01T00:29:08.086Z,4.40
2022-09-01T00:29:17.987Z,4.80
2022-09-01T00:29:27.966Z,6.60
2022-09-01T00:29:37.966Z,6.60
2022-09-01T00:29:48.033Z,4.90
2022-09-01T00:29:57.959Z,5.00
2022-09-01T00:30:07.977Z,4.70
2022-09-01T00:30:17.954Z,4.60
2022-09-01T00:30:27.967Z,5.00
2022-09-01T00:30:38.057Z,5.00
2022-09-01T00:30:47.990Z,5.00
2022-09-01T00:30:58.799Z,4.70
2022-09-01T00:31:08.793Z,5.00
2022-09-01T00:31:18.056Z,5.10
2022-09-01T00:31:28.037Z,5.20
2022-09-01T00:31:38.009Z,4.90
2022-09-01T00:31:47.965Z,4.70
2022-09-01T00:31:57.954Z,4.50
2022-09-01T00:32:07.979Z,6.20
2022-09-01T00:32:18.125Z,8.30
2022-09-01T00:32:27.956Z,6.10
2022-09-01T00:32:37.952Z,5.00
2022-09-01T00:32:47.949Z,4.10
2022-09-01T00:32:57.953Z,4.60
2022-09-01T00:33:08.687Z,4.70
2022-09-01T00:33:18.294Z,5.10
2022-09-01T00:33:27.975Z,5.10
2022-09-01T00:33:37.968Z,6.10
2022-09-01T00:33:47.945Z,5.40
2022-09-01T00:33:57.953Z,5.00
2022-09-01T00:34:08.040Z,4.90
2022-09-01T00:34:17.957Z,4.30
2022-09-01T00:34:27.972Z,4.30
2022-09-01T00:34:37.939Z,4.70
2022-09-01T00:34:47.942Z,15.70
2022-09-01T00:34:57.990Z,15.90
2022-09-01T00:35:07.944Z,13.20
2022-09-01T00:35:17.985Z,4.60
2022-09-01T00:35:27.943Z,4.50
2022-09-01T00:35:37.932Z,4.70
2022-09-01T00:35:48.688Z,4.80
2022-09-01T00:35:57.936Z,5.30
2022-09-01T00:36:07.978Z,10.40
2022-09-01T00:36:17.950Z,10.50
2022-09-01T00:36:27.933Z,6.70
2022-09-01T00:36:37.939Z,5.70
2022-09-01T00:36:47.966Z,6.20
2022-09-01T00:36:57.929Z,5.80
2022-09-01T00:37:07.995Z,5.80
2022-09-01T00:37:18.699Z,5.70
2022-09-01T00:37:28.018Z,7.90
2022-09-01T00:37:37.946Z,7.60
2022-09-01T00:37:47.946Z,7.90
2022-09-01T00:37:57.924Z,5.10
2022-09-01T00:38:07.954Z,5.20
2022-09-01T00:38:18.871Z,5.10
2022-09-01T00:38:28.088Z,5.10
2022-09-01T00:38:37.933Z,4.90
2022-09-01T00:38:47.969Z,5.00
2022-09-01T00:38:57.931Z,4.80
2022-09-01T00:39:07.926Z,4.50
2022-09-01T00:39:17.934Z,4.40
2022-09-01T00:39:28.718Z,4.30
2022-09-01T00:39:37.933Z,4.20
2022-09-01T00:39:47.936Z,4.50
2022-09-01T00:39:57.931Z,6.40
2022-09-01T00:40:08.029Z,6.40
2022-09-01T00:40:17.969Z,6.50
2022-09-01T00:40:27.957Z,5.90
2022-09-01T00:40:38.035Z,5.60
2022-09-01T00:40:47.956Z,7.60
2022-09-01T00:40:57.916Z,5.10
2022-09-01T00:41:07.933Z,5.70
2022-09-01T00:41:17.913Z,5.00
2022-09-01T00:41:28.709Z,4.90
2022-09-01T00:41:38.017Z,4.50
2022-09-01T00:41:48.184Z,4.60
2022-09-01T00:41:57.921Z,5.10
2022-09-01T00:42:07.916Z,5.20
2022-09-01T00:42:17.929Z,12.70
2022-09-01T00:42:27.917Z,12.50
2022-09-01T00:42:37.901Z,9.40
2022-09-01T00:42:47.906Z,5.00
2022-09-01T00:42:57.926Z,4.90
2022-09-01T00:43:07.905Z,8.80
2022-09-01T00:43:17.929Z,8.60
2022-09-01T00:43:27.921Z,8.60
2022-09-01T00:43:38.278Z,5.40
2022-09-01T00:43:47.896Z,5.30
2022-09-01T00:43:57.896Z,5.00
2022-09-01T00:44:07.901Z,5.10
2022-09-01T00:44:17.891Z,5.30
2022-09-01T00:44:29.696Z,5.60
2022-09-01T00:44:37.903Z,5.50
2022-09-01T00:44:48.697Z,5.10
2022-09-01T00:44:57.908Z,4.90
2022-09-01T00:45:07.908Z,4.90
2022-09-01T00:45:17.898Z,5.50
2022-09-01T00:45:27.903Z,5.60
2022-09-01T00:45:37.910Z,5.50
2022-09-01T00:45:48.078Z,5.00
2022-09-01T00:45:57.985Z,5.20
2022-09-01T00:46:07.957Z,7.20
2022-09-01T00:46:18.421Z,7.30
2022-09-01T00:46:28.955Z,5.30
2022-09-01T00:46:47.647Z,4.50
2022-09-01T00:46:50.376Z,4.20
2022-09-01T00:46:57.957Z,4.40
2022-09-01T00:47:07.904Z,4.80
2022-09-01T00:47:17.878Z,5.20
2022-09-01T00:47:27.959Z,5.20
2022-09-01T00:47:37.899Z,5.90
2022-09-01T00:47:48.703Z,5.90
2022-09-01T00:47:57.886Z,5.90
2022-09-01T00:48:07.890Z,5.70
2022-09-01T00:48:17.971Z,6.10
2022-09-01T00:48:27.883Z,6.30
2022-09-01T00:48:37.895Z,5.50
2022-09-01T00:48:47.933Z,4.80
2022-09-01T00:48:57.896Z,4.80
2022-09-01T00:49:08.704Z,4.50
2022-09-01T00:49:17.867Z,6.40
2022-09-01T00:49:27.891Z,8.20
2022-09-01T00:49:37.869Z,8.30
2022-09-01T00:49:47.893Z,6.20
2022-09-01T00:49:57.982Z,4.50
2022-09-01T00:50:07.898Z,5.10
2022-09-01T00:50:17.875Z,5.20
2022-09-01T00:50:28.693Z,8.30
2022-09-01T00:50:37.878Z,5.20
2022-09-01T00:50:49.534Z,5.30
2022-09-01T00:51:00.704Z,5.80
2022-09-01T00:51:07.878Z,9.30
2022-09-01T00:51:17.868Z,9.40
2022-09-01T00:51:27.887Z,7.60
2022-09-01T00:51:37.872Z,5.10
2022-09-01T00:51:47.882Z,5.40
2022-09-01T00:51:58.698Z,4.80
2022-09-01T00:52:07.854Z,5.30
2022-09-01T00:52:17.857Z,5.20
2022-09-01T00:52:27.865Z,6.40
2022-09-01T00:52:37.860Z,5.90
2022-09-01T00:52:47.866Z,6.60
2022-09-01T00:52:57.861Z,7.30
2022-09-01T00:53:07.856Z,9.70
2022-09-01T00:53:17.864Z,7.10
2022-09-01T00:53:27.855Z,5.90
2022-09-01T00:53:37.865Z,5.90
2022-09-01T00:53:47.859Z,6.00
2022-09-01T00:53:58.309Z,5.90
2022-09-01T00:54:07.931Z,5.50
2022-09-01T00:54:17.860Z,5.10
2022-09-01T00:54:27.865Z,4.50
2022-09-01T00:54:37.863Z,4.50
2022-09-01T00:54:47.859Z,4.30
2022-09-01T00:54:57.850Z,4.70
2022-09-01T00:55:07.865Z,4.40
2022-09-01T00:55:17.874Z,16.20
2022-09-01T00:55:27.880Z,16.10
2022-09-01T00:55:38.703Z,18.20
2022-09-01T00:55:47.840Z,4.40
2022-09-01T00:55:57.850Z,4.70
2022-09-01T00:56:07.901Z,4.70
2022-09-01T00:56:17.846Z,4.70
2022-09-01T00:56:27.850Z,6.20
2022-09-01T00:56:37.851Z,10.00
2022-09-01T00:56:49.680Z,16.90
2022-09-01T00:56:58.064Z,16.70
2022-09-01T00:57:07.847Z,10.60
2022-09-01T00:57:17.887Z,4.30
2022-09-01T00:57:27.834Z,4.30
2022-09-01T00:57:38.711Z,4.50
2022-09-01T00:57:47.901Z,6.70
2022-09-01T00:57:57.861Z,5.00
2022-09-01T00:58:07.853Z,5.20
2022-09-01T00:58:18.412Z,4.70
2022-09-01T00:58:27.886Z,4.40
2022-09-01T00:58:37.833Z,4.10
2022-09-01T00:58:47.828Z,4.40
2022-09-01T00:58:57.827Z,4.80
2022-09-01T00:59:07.893Z,5.00
2022-09-01T00:59:17.834Z,4.80
2022-09-01T00:59:27.931Z,4.40
2022-09-01T00:59:40.730Z,5.70
2022-09-01T00:59:47.929Z,8.30
2022-09-01T00:59:57.833Z,6.30
2022-09-01T01:00:07.828Z,6.60
2022-09-01T01:00:17.869Z,4.10
2022-09-01T01:00:27.824Z,4.00
2022-09-01T01:00:37.858Z,3.40
2022-09-01T01:00:47.820Z,3.50
2022-09-01T01:00:57.941Z,4.00
2022-09-01T01:01:07.921Z,3.90
2022-09-01T01:01:17.857Z,4.20
2022-09-01T01:01:27.985Z,3.70
2022-09-01T01:01:37.941Z,4.00
2022-09-01T01:01:47.860Z,3.90
2022-09-01T01:01:57.850Z,4.10
2022-09-01T01:02:07.872Z,4.20
2022-09-01T01:02:18.791Z,4.20
2022-09-01T01:02:28.097Z,7.10
2022-09-01T01:02:37.892Z,3.90
2022-09-01T01:02:47.845Z,5.90
2022-09-01T01:02:57.874Z,3.10
2022-09-01T01:03:07.887Z,6.20
2022-09-01T01:03:17.897Z,6.30
2022-09-01T01:03:27.818Z,6.20
2022-09-01T01:03:37.840Z,7.30
2022-09-01T01:03:47.930Z,5.20
2022-09-01T01:03:57.827Z,5.40
2022-09-01T01:04:07.812Z,4.30
2022-09-01T01:04:17.867Z,4.80
2022-09-01T01:04:27.865Z,3.90
2022-09-01T01:04:37.915Z,6.20
2022-09-01T01:04:47.804Z,3.80
2022-09-01T01:04:57.810Z,3.90
2022-09-01T01:05:07.807Z,3.60
2022-09-01T01:05:17.822Z,4.30
2022-09-01T01:05:27.818Z,4.20
2022-09-01T01:05:37.804Z,4.20
2022-09-01T01:05:47.813Z,3.30
2022-09-01T01:05:57.810Z,4.30
2022-09-01T01:06:07.812Z,4.40
2022-09-01T01:06:17.805Z,4.30
2022-09-01T01:06:27.837Z,5.00
2022-09-01T01:06:37.956Z,4.90
2022-09-01T01:06:47.808Z,5.00
2022-09-01T01:06:57.794Z,3.20
2022-09-01T01:07:07.812Z,3.50
2022-09-01T01:07:17.828Z,3.60
2022-09-01T01:07:27.787Z,10.70
2022-09-01T01:07:37.816Z,9.00
2022-09-01T01:07:48.068Z,8.70
2022-09-01T01:07:57.793Z,3.20
2022-09-01T01:08:07.798Z,3.00
2022-09-01T01:08:17.798Z,2.90
2022-09-01T01:08:27.783Z,3.00
2022-09-01T01:08:37.837Z,3.10
2022-09-01T01:08:47.792Z,6.70
2022-09-01T01:08:57.796Z,9.10
2022-09-01T01:09:07.779Z,9.30
2022-09-01T01:09:17.795Z,3.90
2022-09-01T01:09:27.839Z,3.20
2022-09-01T01:09:37.801Z,2.80
2022-09-01T01:09:47.781Z,2.50
2022-09-01T01:09:57.788Z,2.90
2022-09-01T01:10:07.782Z,3.10
2022-09-01T01:10:17.806Z,2.90
2022-09-01T01:10:27.777Z,2.70
2022-09-01T01:10:37.804Z,2.70
2022-09-01T01:10:47.874Z,2.80
2022-09-01T01:10:57.778Z,3.10
2022-09-01T01:11:07.773Z,5.10
2022-09-01T01:11:17.874Z,5.30
2022-09-01T01:11:27.804Z,8.70
2022-09-01T01:11:37.799Z,7.00
2022-09-01T01:11:47.776Z,6.80
2022-09-01T01:11:57.807Z,3.60
2022-09-01T01:12:07.783Z,3.50
2022-09-01T01:12:17.776Z,3.40
2022-09-01T01:12:27.766Z,3.30
2022-09-01T01:12:37.823Z,4.20
2022-09-01T01:12:48.712Z,9.10
2022-09-01T01:12:57.765Z,13.60
2022-09-01T01:13:07.760Z,15.70
2022-09-01T01:13:17.787Z,10.80
2022-09-01T01:13:27.801Z,13.00
2022-09-01T01:13:37.762Z,8.10
2022-09-01T01:13:47.783Z,10.20
2022-09-01T01:13:57.788Z,3.60
2022-09-01T01:14:07.765Z,7.60
2022-09-01T01:14:17.788Z,8.10
2022-09-01T01:14:27.764Z,8.10
2022-09-01T01:14:37.836Z,3.90
2022-09-01T01:14:47.773Z,3.00
2022-09-01T01:14:57.841Z,3.20
2022-09-01T01:15:07.760Z,24.20
2022-09-01T01:15:17.881Z,24.20
2022-09-01T01:15:27.755Z,22.00
2022-09-01T01:15:37.757Z,3.70
2022-09-01T01:15:47.774Z,8.10
2022-09-01T01:15:57.756Z,8.40
2022-09-01T01:16:08.717Z,8.90
2022-09-01T01:16:17.780Z,4.50
2022-09-01T01:16:27.793Z,10.30
2022-09-01T01:16:37.828Z,6.90
2022-09-01T01:16:48.741Z,7.00
2022-09-01T01:16:58.845Z,5.40
2022-09-01T01:17:07.823Z,5.60
2022-09-01T01:17:17.751Z,7.90
2022-09-01T01:17:27.757Z,7.90
2022-09-01T01:17:37.778Z,7.90
2022-09-01T01:17:47.741Z,5.70
2022-09-01T01:17:57.743Z,3.10
2022-09-01T01:18:07.760Z,5.60
2022-09-01T01:18:23.155Z,5.60
2022-09-01T01:18:27.750Z,10.60
2022-09-01T01:18:37.751Z,6.40
2022-09-01T01:18:47.744Z,6.60
2022-09-01T01:18:58.740Z,3.50
2022-09-01T01:19:07.813Z,3.50
2022-09-01T01:19:17.748Z,3.40
2022-09-01T01:19:27.751Z,2.60
2022-09-01T01:19:39.106Z,3.60
2022-09-01T01:19:47.778Z,3.50
2022-09-01T01:19:57.751Z,5.80
2022-09-01T01:20:07.736Z,3.30
2022-09-01T01:20:17.734Z,9.80
2022-09-01T01:20:27.753Z,7.60
2022-09-01T01:20:37.741Z,8.10
2022-09-01T01:20:47.720Z,3.50
2022-09-01T01:20:57.744Z,3.20
2022-09-01T01:21:08.765Z,4.50
2022-09-01T01:21:17.737Z,7.40
2022-09-01T01:21:27.759Z,13.00
2022-09-01T01:21:37.729Z,11.90
2022-09-01T01:21:47.756Z,8.80
2022-09-01T01:21:57.763Z,3.60
2022-09-01T01:22:07.725Z,5.90
2022-09-01T01:22:17.796Z,8.60
2022-09-01T01:22:27.721Z,8.60
2022-09-01T01:22:37.838Z,8.70
2022-09-01T01:22:47.741Z,9.20
2022-09-01T01:22:57.733Z,9.60
2022-09-01T01:23:08.744Z,4.90
2022-09-01T01:23:17.799Z,7.50
2022-09-01T01:23:27.735Z,10.50
2022-09-01T01:23:37.724Z,10.50
2022-09-01T01:23:47.817Z,4.70
2022-09-01T01:23:57.731Z,4.20
2022-09-01T01:24:07.766Z,9.10
2022-09-01T01:24:17.719Z,9.40
2022-09-01T01:24:27.718Z,13.40
2022-09-01T01:24:38.740Z,5.70
2022-09-01T01:24:47.722Z,5.40
2022-09-01T01:24:57.807Z,3.80
2022-09-01T01:25:07.715Z,7.20
2022-09-01T01:25:18.274Z,10.50
2022-09-01T01:25:27.720Z,10.50
2022-09-01T01:25:37.724Z,4.60
2022-09-01T01:25:47.731Z,3.40
2022-09-01T01:25:57.725Z,3.20
2022-09-01T01:26:07.725Z,3.30
2022-09-01T01:26:17.795Z,4.00
2022-09-01T01:26:27.701Z,4.20
2022-09-01T01:26:37.711Z,4.90
2022-09-01T01:26:47.718Z,4.80
2022-09-01T01:26:57.714Z,5.20
2022-09-01T01:27:07.707Z,6.80
2022-09-01T01:27:17.728Z,4.20
2022-09-01T01:27:27.834Z,3.90
2022-09-01T01:27:42.525Z,3.80
2022-09-01T01:27:47.703Z,3.90
2022-09-01T01:27:57.708Z,4.10
2022-09-01T01:28:07.744Z,4.10
2022-09-01T01:28:17.704Z,4.60
2022-09-01T01:28:27.733Z,4.50
2022-09-01T01:28:38.249Z,4.30
2022-09-01T01:28:47.692Z,4.30
2022-09-01T01:28:57.728Z,4.60
2022-09-01T01:29:07.763Z,4.60
2022-09-01T01:29:17.700Z,4.30
2022-09-01T01:29:28.282Z,3.80
2022-09-01T01:29:37.702Z,3.90
2022-09-01T01:29:47.687Z,3.50
2022-09-01T01:29:57.697Z,4.00
2022-09-01T01:30:09.366Z,4.10
2022-09-01T01:30:17.709Z,4.10
2022-09-01T01:30:27.720Z,3.50
2022-09-01T01:30:38.359Z,3.20
2022-09-01T01:30:47.724Z,3.90
2022-09-01T01:30:57.780Z,5.60
2022-09-01T01:31:07.748Z,9.90
2022-09-01T01:31:17.780Z,15.00
2022-09-01T01:31:27.736Z,12.80
2022-09-01T01:31:37.798Z,8.30
2022-09-01T01:31:47.737Z,4.50
2022-09-01T01:31:57.684Z,4.70
2022-09-01T01:32:07.686Z,4.70
2022-09-01T01:32:17.681Z,4.20
2022-09-01T01:32:27.673Z,4.70
2022-09-01T01:32:37.690Z,7.20
2022-09-01T01:32:47.710Z,9.60
2022-09-01T01:32:57.671Z,7.20
2022-09-01T01:33:08.221Z,7.50
2022-09-01T01:33:17.698Z,5.80
2022-09-01T01:33:28.225Z,6.00
2022-09-01T01:33:38.245Z,5.90
2022-09-01T01:33:47.674Z,6.50
2022-09-01T01:33:57.668Z,6.00
2022-09-01T01:34:07.691Z,5.80
2022-09-01T01:34:17.670Z,7.70
2022-09-01T01:34:27.782Z,10.20
2022-09-01T01:34:37.705Z,6.50
2022-09-01T01:34:48.831Z,7.40
2022-09-01T01:34:57.775Z,5.90
2022-09-01T01:35:07.705Z,7.30
2022-09-01T01:35:17.718Z,5.90
2022-09-01T01:35:27.663Z,6.10
2022-09-01T01:35:38.215Z,5.80
2022-09-01T01:35:47.661Z,5.70
2022-09-01T01:35:57.806Z,9.30
2022-09-01T01:36:07.693Z,9.20
2022-09-01T01:36:17.671Z,6.00
2022-09-01T01:36:27.692Z,4.80
2022-09-01T01:36:37.668Z,5.40
2022-09-01T01:36:47.658Z,7.80
2022-09-01T01:36:57.688Z,7.90
2022-09-01T01:37:07.668Z,10.40
2022-09-01T01:37:17.673Z,5.90
2022-09-01T01:37:27.673Z,5.70
2022-09-01T01:37:37.680Z,6.80
2022-09-01T01:37:48.247Z,7.10
2022-09-01T01:37:57.891Z,9.00
2022-09-01T01:38:07.667Z,5.40
2022-09-01T01:38:17.659Z,12.80
2022-09-01T01:38:27.653Z,14.30
2022-09-01T01:38:37.646Z,14.30
2022-09-01T01:38:47.653Z,5.90
2022-09-01T01:38:57.738Z,5.60
2022-09-01T01:39:07.654Z,5.50
2022-09-01T01:39:17.648Z,6.60
2022-09-01T01:39:27.676Z,6.80
2022-09-01T01:39:37.649Z,6.60
2022-09-01T01:39:48.222Z,6.10
2022-09-01T01:39:57.785Z,6.00
2022-09-01T01:40:07.673Z,5.70
2022-09-01T01:40:17.712Z,5.60
2022-09-01T01:40:27.790Z,5.90
2022-09-01T01:40:37.692Z,7.30
2022-09-01T01:40:47.749Z,7.20
2022-09-01T01:40:57.640Z,6.10
2022-09-01T01:41:07.647Z,6.10
2022-09-01T01:41:18.218Z,6.20
2022-09-01T01:41:27.664Z,6.50
2022-09-01T01:41:37.634Z,6.30
2022-09-01T01:41:47.645Z,6.10
2022-09-01T01:41:58.244Z,5.90
2022-09-01T01:42:07.636Z,6.60
2022-09-01T01:42:17.656Z,6.80
2022-09-01T01:42:27.632Z,9.90
2022-09-01T01:42:37.642Z,7.00
2022-09-01T01:42:47.640Z,12.60
2022-09-01T01:42:57.637Z,9.00
2022-09-01T01:43:07.632Z,12.90
2022-09-01T01:43:17.672Z,15.80
2022-09-01T01:43:27.664Z,15.90
2022-09-01T01:43:37.654Z,12.00
2022-09-01T01:43:47.625Z,6.30
2022-09-01T01:43:58.226Z,6.50
2022-09-01T01:44:07.627Z,6.20
2022-09-01T01:44:17.618Z,6.30
2022-09-01T01:44:27.658Z,6.80
2022-09-01T01:44:40.227Z,7.10
2022-09-01T01:44:47.625Z,6.90
2022-09-01T01:44:57.651Z,6.70
2022-09-01T01:45:07.699Z,7.60
2022-09-01T01:45:17.615Z,7.60
2022-09-01T01:45:27.621Z,7.30
2022-09-01T01:45:37.711Z,6.30
2022-09-01T01:45:47.701Z,6.30
2022-09-01T01:45:57.661Z,6.80
2022-09-01T01:46:07.774Z,7.40
2022-09-01T01:46:17.667Z,7.50
2022-09-01T01:46:27.805Z,7.00
2022-09-01T01:46:37.633Z,6.80
2022-09-01T01:46:47.626Z,6.80
2022-09-01T01:46:57.628Z,6.90
2022-09-01T01:47:07.621Z,7.20
2022-09-01T01:47:17.606Z,7.50
2022-09-01T01:47:27.612Z,8.20
2022-09-01T01:47:37.612Z,8.10
2022-09-01T01:47:47.611Z,10.30
2022-09-01T01:47:57.628Z,8.20
2022-09-01T01:48:08.245Z,8.30
2022-09-01T01:48:18.345Z,7.00
2022-09-01T01:48:27.619Z,6.50
2022-09-01T01:48:38.263Z,6.60
2022-09-01T01:48:47.612Z,6.80
2022-09-01T01:48:57.612Z,7.00
2022-09-01T01:49:07.609Z,7.00
2022-09-01T01:49:17.620Z,7.50
2022-09-01T01:49:27.625Z,7.40
2022-09-01T01:49:37.603Z,7.50
2022-09-01T01:49:47.610Z,7.10
2022-09-01T01:49:57.599Z,7.00
2022-09-01T01:50:07.606Z,7.60
2022-09-01T01:50:17.662Z,8.80
2022-09-01T01:50:27.599Z,13.20
2022-09-01T01:50:37.593Z,10.10
2022-09-01T01:50:47.645Z,8.30
2022-09-01T01:50:57.592Z,7.50
2022-09-01T01:51:07.629Z,7.80
2022-09-01T01:51:17.598Z,7.30
2022-09-01T01:51:27.601Z,6.80
2022-09-01T01:51:37.617Z,7.50
2022-09-01T01:51:47.610Z,9.30
2022-09-01T01:51:57.596Z,13.50
2022-09-01T01:52:08.236Z,13.30
2022-09-01T01:52:18.253Z,13.20
2022-09-01T01:52:27.597Z,9.50
2022-09-01T01:52:37.672Z,8.20
2022-09-01T01:52:47.587Z,7.30
2022-09-01T01:52:58.563Z,7.30
2022-09-01T01:53:11.134Z,6.80
2022-09-01T01:53:17.640Z,7.40
2022-09-01T01:53:27.580Z,7.00
2022-09-01T01:53:37.760Z,7.00
2022-09-01T01:53:47.589Z,6.70
2022-09-01T01:53:57.581Z,7.60
2022-09-01T01:54:07.594Z,8.80
2022-09-01T01:54:17.652Z,11.00
2022-09-01T01:54:27.714Z,7.30
2022-09-01T01:54:37.597Z,7.80
2022-09-01T01:54:47.577Z,7.50
2022-09-01T01:55:00.172Z,7.60
2022-09-01T01:55:07.614Z,7.00
2022-09-01T01:55:17.577Z,6.90
2022-09-01T01:55:27.593Z,6.50
2022-09-01T01:55:37.631Z,8.50
2022-09-01T01:55:47.678Z,12.00
2022-09-01T01:55:57.630Z,12.00
2022-09-01T01:56:07.571Z,9.00
2022-09-01T01:56:18.294Z,8.40
2022-09-01T01:56:28.245Z,8.50
2022-09-01T01:56:37.568Z,8.10
2022-09-01T01:56:47.566Z,7.30
2022-09-01T01:56:57.573Z,6.80
2022-09-01T01:57:08.241Z,7.20
2022-09-01T01:57:17.563Z,7.60
2022-09-01T01:57:27.578Z,7.70
2022-09-01T01:57:37.560Z,7.30
2022-09-01T01:57:47.563Z,6.70
2022-09-01T01:57:57.575Z,6.80
2022-09-01T01:58:07.652Z,6.80
2022-09-01T01:58:18.323Z,8.80
2022-09-01T01:58:27.639Z,13.00
2022-09-01T01:58:37.673Z,15.60
2022-09-01T01:58:47.572Z,11.10
2022-09-01T01:58:58.234Z,8.70
2022-09-01T01:59:08.190Z,6.40
2022-09-01T01:59:17.560Z,6.40
2022-09-01T01:59:27.583Z,6.40
2022-09-01T01:59:37.551Z,6.60
2022-09-01T01:59:48.241Z,7.50
2022-09-01T01:59:57.554Z,7.40
2022-09-01T02:00:07.558Z,8.00
2022-09-01T02:00:17.583Z,6.50
2022-09-01T02:00:30.174Z,6.70
2022-09-01T02:00:37.601Z,6.60
2022-09-01T02:00:47.587Z,6.60
2022-09-01T02:00:57.603Z,6.30
2022-09-01T02:01:07.616Z,7.00
2022-09-01T02:01:17.584Z,7.30
2022-09-01T02:01:27.575Z,7.20
2022-09-01T02:01:37.618Z,6.30
2022-09-01T02:01:47.626Z,6.10
2022-09-01T02:01:57.540Z,6.30
2022-09-01T02:02:07.632Z,6.20
2022-09-01T02:02:17.593Z,6.40
2022-09-01T02:02:27.611Z,6.10
2022-09-01T02:02:38.357Z,6.10
2022-09-01T02:02:47.751Z,6.40
2022-09-01T02:02:57.629Z,5.90
2022-09-01T02:03:07.574Z,6.00
2022-09-01T02:03:17.539Z,7.50
2022-09-01T02:03:27.594Z,7.70
2022-09-01T02:03:37.543Z,10.50
2022-09-01T02:03:47.536Z,6.10
2022-09-01T02:03:57.553Z,6.60
2022-09-01T02:04:07.559Z,6.50
2022-09-01T02:04:17.536Z,7.20
2022-09-01T02:04:27.541Z,7.30
2022-09-01T02:04:37.581Z,6.70
2022-09-01T02:04:47.625Z,6.10
2022-09-01T02:04:57.533Z,6.20
2022-09-01T02:05:07.578Z,6.70
2022-09-01T02:05:17.528Z,6.90
2022-09-01T02:05:27.558Z,6.50
2022-09-01T02:05:37.527Z,6.30
2022-09-01T02:05:47.550Z,5.90
2022-09-01T02:05:57.535Z,6.80
2022-09-01T02:06:07.530Z,6.80
2022-09-01T02:06:17.579Z,11.60
2022-09-01T02:06:27.554Z,8.20
2022-09-01T02:06:37.522Z,11.30
2022-09-01T02:06:48.242Z,11.70
2022-09-01T02:06:57.652Z,12.00
2022-09-01T02:07:07.530Z,9.00
2022-09-01T02:07:17.528Z,6.60
2022-09-01T02:07:27.566Z,6.90
2022-09-01T02:07:37.534Z,8.40
2022-09-01T02:07:48.246Z,8.40
2022-09-01T02:07:57.538Z,9.20
2022-09-01T02:08:07.532Z,15.20
2022-09-01T02:08:17.644Z,15.10
2022-09-01T02:08:27.566Z,12.90
2022-09-01T02:08:37.512Z,6.30
2022-09-01T02:08:47.532Z,6.10
2022-09-01T02:08:57.681Z,10.30
2022-09-01T02:09:07.549Z,10.50
2022-09-01T02:09:17.536Z,8.20
2022-09-01T02:09:27.517Z,7.00
2022-09-01T02:09:38.265Z,13.10
2022-09-01T02:09:47.527Z,12.70
2022-09-01T02:09:57.511Z,13.10
2022-09-01T02:10:07.529Z,6.60
2022-09-01T02:10:17.508Z,6.90
2022-09-01T02:10:27.518Z,6.60
2022-09-01T02:10:37.521Z,10.70
2022-09-01T02:10:47.509Z,12.80
2022-09-01T02:10:57.518Z,14.80
2022-09-01T02:11:08.229Z,9.90
2022-09-01T02:11:17.501Z,7.70
2022-09-01T02:11:27.571Z,7.50
2022-09-01T02:11:37.515Z,7.20
2022-09-01T02:11:47.569Z,13.20
2022-09-01T02:11:57.513Z,11.40
2022-09-01T02:12:08.351Z,11.40
2022-09-01T02:12:17.505Z,6.90
2022-09-01T02:12:27.506Z,7.00